sensor_id;sensor_type;location;lat;lon;timestamp;temperature;humidity
78345;DHT22;67620;51.134;6.548;2024-03-23T00:54:13;8.80;83.00
78345;DHT22;67620;51.134;6.548;2024-03-23T00:56:39;8.70;82.60
78345;DHT22;67620;51.134;6.548;2024-03-23T00:59:04;8.70;82.40
78345;DHT22;67620;51.134;6.548;2024-03-23T01:01:30;8.60;80.80
78345;DHT22;67620;51.134;6.548;2024-03-23T01:03:55;8.70;81.50
78345;DHT22;67620;51.134;6.548;2024-03-23T01:06:21;8.60;82.40
78345;DHT22;67620;51.134;6.548;2024-03-23T01:08:46;8.40;79.80
78345;DHT22;67620;51.134;6.548;2024-03-23T01:11:11;8.50;80.20
78345;DHT22;67620;51.134;6.548;2024-03-23T01:13:37;8.60;80.20
78345;DHT22;67620;51.134;6.548;2024-03-23T01:16:03;8.50;79.70
78345;DHT22;67620;51.134;6.548;2024-03-23T01:18:28;8.50;80.90
78345;DHT22;67620;51.134;6.548;2024-03-23T01:20:54;8.50;79.90
78345;DHT22;67620;51.134;6.548;2024-03-23T01:23:20;8.40;78.80
78345;DHT22;67620;51.134;6.548;2024-03-23T01:25:51;8.40;78.30
78345;DHT22;67620;51.134;6.548;2024-03-23T01:28:16;8.30;78.70
78345;DHT22;67620;51.134;6.548;2024-03-23T01:30:42;8.20;79.10
78345;DHT22;67620;51.134;6.548;2024-03-23T01:33:07;8.30;78.50
78345;DHT22;67620;51.134;6.548;2024-03-23T01:35:33;8.20;77.90
78345;DHT22;67620;51.134;6.548;2024-03-23T01:37:58;8.20;76.10
78345;DHT22;67620;51.134;6.548;2024-03-23T01:40:24;8.20;78.00
78345;DHT22;67620;51.134;6.548;2024-03-23T01:42:56;8.20;77.10
78345;DHT22;67620;51.134;6.548;2024-03-23T01:45:21;8.20;77.50
78345;DHT22;67620;51.134;6.548;2024-03-23T01:47:47;8.10;78.30
78345;DHT22;67620;51.134;6.548;2024-03-23T01:50:13;8.00;78.20
78345;DHT22;67620;51.134;6.548;2024-03-23T01:52:38;7.90;79.30
78345;DHT22;67620;51.134;6.548;2024-03-23T01:55:04;7.90;78.50
78345;DHT22;67620;51.134;6.548;2024-03-23T01:57:30;7.90;78.20
78345;DHT22;67620;51.134;6.548;2024-03-23T01:59:55;7.90;79.10
78345;DHT22;67620;51.134;6.548;2024-03-23T02:02:21;8.00;78.10
78345;DHT22;67620;51.134;6.548;2024-03-23T02:04:46;8.00;77.40
78345;DHT22;67620;51.134;6.548;2024-03-23T02:07:12;7.90;78.40
78345;DHT22;67620;51.134;6.548;2024-03-23T02:09:37;7.90;78.60
78345;DHT22;67620;51.134;6.548;2024-03-23T02:12:03;7.90;78.90
78345;DHT22;67620;51.134;6.548;2024-03-23T02:14:28;7.80;79.00
78345;DHT22;67620;51.134;6.548;2024-03-23T02:16:54;7.90;78.70
78345;DHT22;67620;51.134;6.548;2024-03-23T02:19:19;7.90;79.10
78345;DHT22;67620;51.134;6.548;2024-03-23T02:21:45;7.80;80.40
78345;DHT22;67620;51.134;6.548;2024-03-23T02:24:12;7.70;80.00
78345;DHT22;67620;51.134;6.548;2024-03-23T02:26:37;7.70;81.00
78345;DHT22;67620;51.134;6.548;2024-03-23T02:29:03;7.60;81.10
78345;DHT22;67620;51.134;6.548;2024-03-23T02:31:28;7.70;82.00
78345;DHT22;67620;51.134;6.548;2024-03-23T02:33:54;7.60;81.90
78345;DHT22;67620;51.134;6.548;2024-03-23T02:36:19;7.40;81.00
78345;DHT22;67620;51.134;6.548;2024-03-23T02:38:46;7.10;82.20
78345;DHT22;67620;51.134;6.548;2024-03-23T02:41:12;7.10;82.00
78345;DHT22;67620;51.134;6.548;2024-03-23T02:43:37;7.20;83.60
78345;DHT22;67620;51.134;6.548;2024-03-23T02:46:03;7.10;82.60
78345;DHT22;67620;51.134;6.548;2024-03-23T02:48:29;7.10;82.70
78345;DHT22;67620;51.134;6.548;2024-03-23T02:50:55;7.00;82.00
78345;DHT22;67620;51.134;6.548;2024-03-23T02:53:20;7.00;83.60
78345;DHT22;67620;51.134;6.548;2024-03-23T02:55:46;7.00;84.40
78345;DHT22;67620;51.134;6.548;2024-03-23T02:58:11;7.00;83.80
78345;DHT22;67620;51.134;6.548;2024-03-23T03:00:37;6.90;84.20
78345;DHT22;67620;51.134;6.548;2024-03-23T03:03:02;6.90;84.60
78345;DHT22;67620;51.134;6.548;2024-03-23T03:05:28;6.80;85.40
78345;DHT22;67620;51.134;6.548;2024-03-23T03:07:54;6.80;84.60
78345;DHT22;67620;51.134;6.548;2024-03-23T03:10:19;6.90;85.40
78345;DHT22;67620;51.134;6.548;2024-03-23T03:12:45;7.10;83.30
78345;DHT22;67620;51.134;6.548;2024-03-23T03:15:10;7.10;83.30
78345;DHT22;67620;51.134;6.548;2024-03-23T03:17:36;7.20;83.90
78345;DHT22;67620;51.134;6.548;2024-03-23T03:20:01;7.20;84.10
78345;DHT22;67620;51.134;6.548;2024-03-23T03:22:28;7.10;84.80
78345;DHT22;67620;51.134;6.548;2024-03-23T03:24:54;6.90;84.40
78345;DHT22;67620;51.134;6.548;2024-03-23T03:27:19;6.90;84.80
78345;DHT22;67620;51.134;6.548;2024-03-23T03:29:44;6.90;84.60
78345;DHT22;67620;51.134;6.548;2024-03-23T03:32:10;6.80;84.60
78345;DHT22;67620;51.134;6.548;2024-03-23T03:34:35;6.90;85.00
78345;DHT22;67620;51.134;6.548;2024-03-23T03:37:01;7.00;84.90
78345;DHT22;67620;51.134;6.548;2024-03-23T03:39:26;6.80;85.60
78345;DHT22;67620;51.134;6.548;2024-03-23T03:41:52;6.80;86.10
78345;DHT22;67620;51.134;6.548;2024-03-23T03:44:17;6.80;85.50
78345;DHT22;67620;51.134;6.548;2024-03-23T03:46:43;6.70;85.80
78345;DHT22;67620;51.134;6.548;2024-03-23T03:49:08;6.70;86.70
78345;DHT22;67620;51.134;6.548;2024-03-23T03:51:34;6.70;86.50
78345;DHT22;67620;51.134;6.548;2024-03-23T03:53:59;6.70;87.10
78345;DHT22;67620;51.134;6.548;2024-03-23T03:56:25;6.60;86.50
78345;DHT22;67620;51.134;6.548;2024-03-23T03:58:50;6.50;87.80
78345;DHT22;67620;51.134;6.548;2024-03-23T04:01:16;6.60;86.90
78345;DHT22;67620;51.134;6.548;2024-03-23T04:03:42;6.70;86.30
78345;DHT22;67620;51.134;6.548;2024-03-23T04:06:11;6.70;85.60
78345;DHT22;67620;51.134;6.548;2024-03-23T04:08:37;6.70;85.70
78345;DHT22;67620;51.134;6.548;2024-03-23T04:11:02;6.80;85.30
78345;DHT22;67620;51.134;6.548;2024-03-23T04:13:28;6.70;85.00
78345;DHT22;67620;51.134;6.548;2024-03-23T04:15:54;6.60;85.20
78345;DHT22;67620;51.134;6.548;2024-03-23T04:18:19;6.70;85.60
78345;DHT22;67620;51.134;6.548;2024-03-23T04:20:44;6.80;84.10
78345;DHT22;67620;51.134;6.548;2024-03-23T04:23:10;6.80;84.70
78345;DHT22;67620;51.134;6.548;2024-03-23T04:25:35;6.90;84.40
78345;DHT22;67620;51.134;6.548;2024-03-23T04:28:01;6.90;84.30
78345;DHT22;67620;51.134;6.548;2024-03-23T04:30:26;6.90;84.60
78345;DHT22;67620;51.134;6.548;2024-03-23T04:32:54;6.90;84.90
78345;DHT22;67620;51.134;6.548;2024-03-23T04:35:20;6.90;84.20
78345;DHT22;67620;51.134;6.548;2024-03-23T04:37:47;6.80;84.70
78345;DHT22;67620;51.134;6.548;2024-03-23T04:40:12;6.70;85.00
78345;DHT22;67620;51.134;6.548;2024-03-23T04:42:38;6.70;85.60
78345;DHT22;67620;51.134;6.548;2024-03-23T04:45:04;6.50;86.00
78345;DHT22;67620;51.134;6.548;2024-03-23T04:47:31;6.60;86.20
78345;DHT22;67620;51.134;6.548;2024-03-23T04:49:56;6.60;86.40
78345;DHT22;67620;51.134;6.548;2024-03-23T04:52:22;6.50;86.70
78345;DHT22;67620;51.134;6.548;2024-03-23T04:54:47;6.50;86.40
78345;DHT22;67620;51.134;6.548;2024-03-23T04:57:13;6.50;86.60
78345;DHT22;67620;51.134;6.548;2024-03-23T04:59:38;6.40;87.10
78345;DHT22;67620;51.134;6.548;2024-03-23T05:02:04;6.50;86.60
78345;DHT22;67620;51.134;6.548;2024-03-23T05:04:29;6.30;87.90
78345;DHT22;67620;51.134;6.548;2024-03-23T05:06:55;6.20;88.10
78345;DHT22;67620;51.134;6.548;2024-03-23T05:09:20;6.30;88.20
78345;DHT22;67620;51.134;6.548;2024-03-23T05:11:46;6.30;88.20
78345;DHT22;67620;51.134;6.548;2024-03-23T05:14:13;6.30;88.10
78345;DHT22;67620;51.134;6.548;2024-03-23T05:16:38;6.30;87.70
78345;DHT22;67620;51.134;6.548;2024-03-23T05:19:04;6.30;87.50
78345;DHT22;67620;51.134;6.548;2024-03-23T05:21:29;6.20;87.80
78345;DHT22;67620;51.134;6.548;2024-03-23T05:23:55;6.30;87.60
78345;DHT22;67620;51.134;6.548;2024-03-23T05:26:21;6.30;87.60
78345;DHT22;67620;51.134;6.548;2024-03-23T05:28:47;6.40;87.20
78345;DHT22;67620;51.134;6.548;2024-03-23T05:31:13;6.30;87.30
78345;DHT22;67620;51.134;6.548;2024-03-23T05:33:47;6.30;87.10
78345;DHT22;67620;51.134;6.548;2024-03-23T05:36:13;6.30;87.10
78345;DHT22;67620;51.134;6.548;2024-03-23T05:38:39;6.30;87.00
78345;DHT22;67620;51.134;6.548;2024-03-23T05:41:04;6.20;86.90
78345;DHT22;67620;51.134;6.548;2024-03-23T05:43:30;6.20;86.50
78345;DHT22;67620;51.134;6.548;2024-03-23T05:45:56;6.30;86.40
78345;DHT22;67620;51.134;6.548;2024-03-23T05:48:22;6.20;86.70
78345;DHT22;67620;51.134;6.548;2024-03-23T05:50:48;6.30;86.80
78345;DHT22;67620;51.134;6.548;2024-03-23T05:53:17;6.20;86.20
78345;DHT22;67620;51.134;6.548;2024-03-23T05:55:42;6.20;86.90
78345;DHT22;67620;51.134;6.548;2024-03-23T05:58:08;6.00;86.70
78345;DHT22;67620;51.134;6.548;2024-03-23T06:00:34;6.00;87.20
78345;DHT22;67620;51.134;6.548;2024-03-23T06:02:59;5.90;87.30
78345;DHT22;67620;51.134;6.548;2024-03-23T06:05:25;5.90;87.50
78345;DHT22;67620;51.134;6.548;2024-03-23T06:07:50;5.90;88.10
78345;DHT22;67620;51.134;6.548;2024-03-23T06:10:16;5.80;88.20
78345;DHT22;67620;51.134;6.548;2024-03-23T06:12:41;5.80;88.00
78345;DHT22;67620;51.134;6.548;2024-03-23T06:15:07;5.80;88.30
78345;DHT22;67620;51.134;6.548;2024-03-23T06:17:36;5.80;88.00
78345;DHT22;67620;51.134;6.548;2024-03-23T06:20:01;5.80;87.90
78345;DHT22;67620;51.134;6.548;2024-03-23T06:22:27;5.90;87.90
78345;DHT22;67620;51.134;6.548;2024-03-23T06:24:52;5.80;88.20
78345;DHT22;67620;51.134;6.548;2024-03-23T06:27:18;5.80;88.20
78345;DHT22;67620;51.134;6.548;2024-03-23T06:29:44;6.00;88.20
78345;DHT22;67620;51.134;6.548;2024-03-23T06:32:09;6.00;87.70
78345;DHT22;67620;51.134;6.548;2024-03-23T06:34:35;6.00;87.90
78345;DHT22;67620;51.134;6.548;2024-03-23T06:37:00;6.00;88.10
78345;DHT22;67620;51.134;6.548;2024-03-23T06:39:26;6.00;88.20
78345;DHT22;67620;51.134;6.548;2024-03-23T06:41:52;6.10;88.00
78345;DHT22;67620;51.134;6.548;2024-03-23T06:44:18;6.10;87.60
78345;DHT22;67620;51.134;6.548;2024-03-23T06:46:43;6.10;88.30
78345;DHT22;67620;51.134;6.548;2024-03-23T06:49:09;6.20;88.10
78345;DHT22;67620;51.134;6.548;2024-03-23T06:51:35;6.30;88.00
78345;DHT22;67620;51.134;6.548;2024-03-23T06:54:02;6.30;87.50
78345;DHT22;67620;51.134;6.548;2024-03-23T06:56:27;6.30;87.00
78345;DHT22;67620;51.134;6.548;2024-03-23T06:58:53;6.30;88.00
78345;DHT22;67620;51.134;6.548;2024-03-23T07:01:18;6.40;87.40
78345;DHT22;67620;51.134;6.548;2024-03-23T07:03:44;6.50;87.00
78345;DHT22;67620;51.134;6.548;2024-03-23T07:06:09;6.50;86.90
78345;DHT22;67620;51.134;6.548;2024-03-23T07:08:35;6.60;87.20
78345;DHT22;67620;51.134;6.548;2024-03-23T07:11:01;6.50;86.90
78345;DHT22;67620;51.134;6.548;2024-03-23T07:13:28;6.50;87.10
78345;DHT22;67620;51.134;6.548;2024-03-23T07:15:53;6.70;87.00
78345;DHT22;67620;51.134;6.548;2024-03-23T07:18:20;6.80;86.30
78345;DHT22;67620;51.134;6.548;2024-03-23T07:20:52;6.80;86.20
78345;DHT22;67620;51.134;6.548;2024-03-23T07:23:17;6.90;86.80
78345;DHT22;67620;51.134;6.548;2024-03-23T07:25:43;7.00;86.40
78345;DHT22;67620;51.134;6.548;2024-03-23T07:28:08;7.10;85.80
78345;DHT22;67620;51.134;6.548;2024-03-23T07:30:35;7.10;85.30
78345;DHT22;67620;51.134;6.548;2024-03-23T07:33:00;7.20;84.50
78345;DHT22;67620;51.134;6.548;2024-03-23T07:35:26;7.10;84.80
78345;DHT22;67620;51.134;6.548;2024-03-23T07:37:51;7.20;84.20
78345;DHT22;67620;51.134;6.548;2024-03-23T07:40:17;7.30;84.50
78345;DHT22;67620;51.134;6.548;2024-03-23T07:42:42;7.20;84.00
78345;DHT22;67620;51.134;6.548;2024-03-23T07:45:08;7.40;82.90
78345;DHT22;67620;51.134;6.548;2024-03-23T07:47:34;7.50;81.90
78345;DHT22;67620;51.134;6.548;2024-03-23T07:50:00;7.50;80.60
78345;DHT22;67620;51.134;6.548;2024-03-23T07:52:28;7.50;79.00
78345;DHT22;67620;51.134;6.548;2024-03-23T07:54:54;7.60;79.30
78345;DHT22;67620;51.134;6.548;2024-03-23T07:57:19;7.70;80.60
78345;DHT22;67620;51.134;6.548;2024-03-23T07:59:45;7.70;76.70
78345;DHT22;67620;51.134;6.548;2024-03-23T08:02:10;7.80;76.90
78345;DHT22;67620;51.134;6.548;2024-03-23T08:04:36;7.90;76.00
78345;DHT22;67620;51.134;6.548;2024-03-23T08:07:02;8.10;76.20
78345;DHT22;67620;51.134;6.548;2024-03-23T08:09:27;8.00;74.40
78345;DHT22;67620;51.134;6.548;2024-03-23T08:11:53;8.00;73.50
78345;DHT22;67620;51.134;6.548;2024-03-23T08:14:18;8.00;73.90
78345;DHT22;67620;51.134;6.548;2024-03-23T08:16:44;8.20;75.20
78345;DHT22;67620;51.134;6.548;2024-03-23T08:19:14;8.30;75.00
78345;DHT22;67620;51.134;6.548;2024-03-23T08:21:39;8.30;73.20
78345;DHT22;67620;51.134;6.548;2024-03-23T08:24:05;8.40;74.10
78345;DHT22;67620;51.134;6.548;2024-03-23T08:26:30;8.50;73.60
78345;DHT22;67620;51.134;6.548;2024-03-23T08:28:56;8.50;72.90
78345;DHT22;67620;51.134;6.548;2024-03-23T08:31:22;9.30;71.40
78345;DHT22;67620;51.134;6.548;2024-03-23T08:33:48;11.20;66.10
78345;DHT22;67620;51.134;6.548;2024-03-23T08:36:13;11.70;63.70
78345;DHT22;67620;51.134;6.548;2024-03-23T08:38:39;11.10;64.50
78345;DHT22;67620;51.134;6.548;2024-03-23T08:41:08;10.70;67.70
78345;DHT22;67620;51.134;6.548;2024-03-23T08:43:38;10.70;64.70
78345;DHT22;67620;51.134;6.548;2024-03-23T08:48:30;10.30;67.90
78345;DHT22;67620;51.134;6.548;2024-03-23T08:51:08;9.80;68.60
78345;DHT22;67620;51.134;6.548;2024-03-23T08:53:34;10.10;70.40
78345;DHT22;67620;51.134;6.548;2024-03-23T08:56:00;11.20;64.80
78345;DHT22;67620;51.134;6.548;2024-03-23T08:58:26;11.40;65.10
78345;DHT22;67620;51.134;6.548;2024-03-23T09:00:52;10.60;65.40
78345;DHT22;67620;51.134;6.548;2024-03-23T09:03:18;11.50;64.60
78345;DHT22;67620;51.134;6.548;2024-03-23T09:05:43;13.60;58.60
78345;DHT22;67620;51.134;6.548;2024-03-23T09:08:09;11.60;62.00
78345;DHT22;67620;51.134;6.548;2024-03-23T09:10:37;10.30;65.50
78345;DHT22;67620;51.134;6.548;2024-03-23T09:13:03;10.10;66.00
78345;DHT22;67620;51.134;6.548;2024-03-23T09:15:28;9.70;66.90
78345;DHT22;67620;51.134;6.548;2024-03-23T09:17:54;11.90;62.30
78345;DHT22;67620;51.134;6.548;2024-03-23T09:20:20;11.50;61.20
78345;DHT22;67620;51.134;6.548;2024-03-23T09:22:47;10.60;64.60
78345;DHT22;67620;51.134;6.548;2024-03-23T09:25:13;10.10;65.90
78345;DHT22;67620;51.134;6.548;2024-03-23T09:27:39;9.70;66.60
78345;DHT22;67620;51.134;6.548;2024-03-23T09:30:04;9.60;66.80
78345;DHT22;67620;51.134;6.548;2024-03-23T09:32:30;9.40;67.70
78345;DHT22;67620;51.134;6.548;2024-03-23T09:34:55;9.20;68.30
78345;DHT22;67620;51.134;6.548;2024-03-23T09:37:21;9.10;66.30
78345;DHT22;67620;51.134;6.548;2024-03-23T09:39:46;9.10;68.00
78345;DHT22;67620;51.134;6.548;2024-03-23T09:42:12;8.90;66.70
78345;DHT22;67620;51.134;6.548;2024-03-23T09:44:37;10.20;61.60
78345;DHT22;67620;51.134;6.548;2024-03-23T09:47:03;12.90;57.10
78345;DHT22;67620;51.134;6.548;2024-03-23T09:49:29;15.70;48.50
78345;DHT22;67620;51.134;6.548;2024-03-23T09:51:54;16.60;45.40
78345;DHT22;67620;51.134;6.548;2024-03-23T09:54:21;17.60;43.00
78345;DHT22;67620;51.134;6.548;2024-03-23T09:56:47;18.20;41.30
78345;DHT22;67620;51.134;6.548;2024-03-23T09:59:12;17.00;43.20
78345;DHT22;67620;51.134;6.548;2024-03-23T10:01:38;18.10;43.70
78345;DHT22;67620;51.134;6.548;2024-03-23T10:04:04;17.80;43.70
78345;DHT22;67620;51.134;6.548;2024-03-23T10:06:29;14.30;48.90
78345;DHT22;67620;51.134;6.548;2024-03-23T10:08:55;12.40;52.70
78345;DHT22;67620;51.134;6.548;2024-03-23T10:11:21;11.10;59.90
78345;DHT22;67620;51.134;6.548;2024-03-23T10:13:47;11.90;58.10
78345;DHT22;67620;51.134;6.548;2024-03-23T10:16:20;13.80;54.50
78345;DHT22;67620;51.134;6.548;2024-03-23T10:18:47;14.20;54.10
78345;DHT22;67620;51.134;6.548;2024-03-23T10:21:14;14.60;53.00
78345;DHT22;67620;51.134;6.548;2024-03-23T10:23:42;13.50;53.40
78345;DHT22;67620;51.134;6.548;2024-03-23T10:26:25;13.20;54.80
78345;DHT22;67620;51.134;6.548;2024-03-23T10:28:52;13.20;52.30
78345;DHT22;67620;51.134;6.548;2024-03-23T10:31:18;12.60;54.00
78345;DHT22;67620;51.134;6.548;2024-03-23T10:33:48;12.50;55.10
78345;DHT22;67620;51.134;6.548;2024-03-23T10:36:14;12.20;53.00
78345;DHT22;67620;51.134;6.548;2024-03-23T10:38:44;11.50;55.50
78345;DHT22;67620;51.134;6.548;2024-03-23T10:41:10;11.60;55.60
78345;DHT22;67620;51.134;6.548;2024-03-23T10:43:36;11.30;56.00
78345;DHT22;67620;51.134;6.548;2024-03-23T10:46:03;10.50;60.10
78345;DHT22;67620;51.134;6.548;2024-03-23T10:48:28;9.70;64.80
78345;DHT22;67620;51.134;6.548;2024-03-23T10:50:54;9.10;65.80
78345;DHT22;67620;51.134;6.548;2024-03-23T10:53:22;8.80;67.60
78345;DHT22;67620;51.134;6.548;2024-03-23T10:55:51;8.50;67.20
78345;DHT22;67620;51.134;6.548;2024-03-23T10:58:20;8.20;68.70
78345;DHT22;67620;51.134;6.548;2024-03-23T11:00:47;8.00;69.70
78345;DHT22;67620;51.134;6.548;2024-03-23T11:03:39;7.80;71.40
78345;DHT22;67620;51.134;6.548;2024-03-23T11:06:06;7.80;71.60
78345;DHT22;67620;51.134;6.548;2024-03-23T11:08:32;7.50;71.00
78345;DHT22;67620;51.134;6.548;2024-03-23T11:11:20;7.80;72.50
78345;DHT22;67620;51.134;6.548;2024-03-23T11:13:54;7.90;70.20
78345;DHT22;67620;51.134;6.548;2024-03-23T11:16:27;8.40;72.20
78345;DHT22;67620;51.134;6.548;2024-03-23T11:18:53;9.30;71.60
78345;DHT22;67620;51.134;6.548;2024-03-23T11:21:51;9.80;69.80
78345;DHT22;67620;51.134;6.548;2024-03-23T11:24:18;10.00;68.10
78345;DHT22;67620;51.134;6.548;2024-03-23T11:26:45;10.20;64.00
78345;DHT22;67620;51.134;6.548;2024-03-23T11:29:11;10.40;67.20
78345;DHT22;67620;51.134;6.548;2024-03-23T11:31:38;10.50;64.70
78345;DHT22;67620;51.134;6.548;2024-03-23T11:34:06;10.80;65.50
78345;DHT22;67620;51.134;6.548;2024-03-23T11:36:32;11.00;66.40
78345;DHT22;67620;51.134;6.548;2024-03-23T11:38:58;11.30;66.40
78345;DHT22;67620;51.134;6.548;2024-03-23T11:41:23;11.50;63.50
78345;DHT22;67620;51.134;6.548;2024-03-23T11:43:50;11.30;63.10
78345;DHT22;67620;51.134;6.548;2024-03-23T11:46:33;11.50;63.60
78345;DHT22;67620;51.134;6.548;2024-03-23T11:48:59;11.00;62.50
78345;DHT22;67620;51.134;6.548;2024-03-23T11:51:25;9.70;66.30
78345;DHT22;67620;51.134;6.548;2024-03-23T11:53:50;9.10;66.70
78345;DHT22;67620;51.134;6.548;2024-03-23T11:56:16;8.50;66.70
78345;DHT22;67620;51.134;6.548;2024-03-23T11:58:41;7.70;73.70
78345;DHT22;67620;51.134;6.548;2024-03-23T12:01:10;7.20;69.80
78345;DHT22;67620;51.134;6.548;2024-03-23T12:03:36;7.50;70.50
78345;DHT22;67620;51.134;6.548;2024-03-23T12:06:03;7.60;69.40
78345;DHT22;67620;51.134;6.548;2024-03-23T12:11:27;8.00;70.00
78345;DHT22;67620;51.134;6.548;2024-03-23T12:13:52;7.50;73.10
78345;DHT22;67620;51.134;6.548;2024-03-23T12:16:19;7.20;73.50
78345;DHT22;67620;51.134;6.548;2024-03-23T12:18:47;7.30;72.30
78345;DHT22;67620;51.134;6.548;2024-03-23T12:21:13;7.20;70.70
78345;DHT22;67620;51.134;6.548;2024-03-23T12:23:40;7.40;69.00
78345;DHT22;67620;51.134;6.548;2024-03-23T12:26:06;7.60;69.10
78345;DHT22;67620;51.134;6.548;2024-03-23T12:28:32;7.50;68.50
78345;DHT22;67620;51.134;6.548;2024-03-23T12:30:58;7.40;67.50
78345;DHT22;67620;51.134;6.548;2024-03-23T12:33:23;7.60;69.60
78345;DHT22;67620;51.134;6.548;2024-03-23T12:35:52;8.20;70.60
78345;DHT22;67620;51.134;6.548;2024-03-23T12:38:19;8.60;67.20
78345;DHT22;67620;51.134;6.548;2024-03-23T12:40:48;8.80;65.70
78345;DHT22;67620;51.134;6.548;2024-03-23T12:43:15;9.00;66.40
78345;DHT22;67620;51.134;6.548;2024-03-23T12:45:40;9.30;67.40
78345;DHT22;67620;51.134;6.548;2024-03-23T12:48:06;9.40;64.80
78345;DHT22;67620;51.134;6.548;2024-03-23T12:50:32;9.60;63.70
78345;DHT22;67620;51.134;6.548;2024-03-23T12:52:58;10.00;66.50
78345;DHT22;67620;51.134;6.548;2024-03-23T12:55:23;10.20;65.30
78345;DHT22;67620;51.134;6.548;2024-03-23T12:57:49;10.30;63.10
78345;DHT22;67620;51.134;6.548;2024-03-23T13:00:15;9.90;64.80
78345;DHT22;67620;51.134;6.548;2024-03-23T13:02:44;10.10;64.70
78345;DHT22;67620;51.134;6.548;2024-03-23T13:05:10;10.30;64.30
78345;DHT22;67620;51.134;6.548;2024-03-23T13:07:35;10.50;63.10
78345;DHT22;67620;51.134;6.548;2024-03-23T13:10:03;10.70;64.90
78345;DHT22;67620;51.134;6.548;2024-03-23T13:12:29;10.80;64.00
78345;DHT22;67620;51.134;6.548;2024-03-23T13:14:55;10.70;63.50
78345;DHT22;67620;51.134;6.548;2024-03-23T13:17:20;10.60;62.70
78345;DHT22;67620;51.134;6.548;2024-03-23T13:19:46;10.50;62.50
78345;DHT22;67620;51.134;6.548;2024-03-23T13:22:11;10.20;61.80
78345;DHT22;67620;51.134;6.548;2024-03-23T13:24:38;10.00;61.10
78345;DHT22;67620;51.134;6.548;2024-03-23T13:27:04;10.00;62.30
78345;DHT22;67620;51.134;6.548;2024-03-23T13:29:33;9.80;62.20
78345;DHT22;67620;51.134;6.548;2024-03-23T13:31:59;9.60;62.80
78345;DHT22;67620;51.134;6.548;2024-03-23T13:34:25;9.50;64.20
78345;DHT22;67620;51.134;6.548;2024-03-23T13:36:50;9.20;66.00
78345;DHT22;67620;51.134;6.548;2024-03-23T13:39:17;8.70;69.80
78345;DHT22;67620;51.134;6.548;2024-03-23T13:41:44;8.40;71.20
78345;DHT22;67620;51.134;6.548;2024-03-23T13:44:11;8.50;71.40
78345;DHT22;67620;51.134;6.548;2024-03-23T13:46:38;8.40;72.00
78345;DHT22;67620;51.134;6.548;2024-03-23T13:49:07;8.80;71.80
78345;DHT22;67620;51.134;6.548;2024-03-23T13:51:33;9.30;73.30
78345;DHT22;67620;51.134;6.548;2024-03-23T13:53:58;9.50;70.10
78345;DHT22;67620;51.134;6.548;2024-03-23T13:56:28;9.30;71.10
78345;DHT22;67620;51.134;6.548;2024-03-23T13:58:56;9.50;72.10
78345;DHT22;67620;51.134;6.548;2024-03-23T14:01:23;9.70;70.90
78345;DHT22;67620;51.134;6.548;2024-03-23T14:03:49;9.90;70.90
78345;DHT22;67620;51.134;6.548;2024-03-23T14:06:15;9.90;66.60
78345;DHT22;67620;51.134;6.548;2024-03-23T14:08:41;9.70;65.20
78345;DHT22;67620;51.134;6.548;2024-03-23T14:11:07;9.70;64.70
78345;DHT22;67620;51.134;6.548;2024-03-23T14:13:33;9.40;64.20
78345;DHT22;67620;51.134;6.548;2024-03-23T14:15:59;8.90;65.00
78345;DHT22;67620;51.134;6.548;2024-03-23T14:18:25;8.60;68.40
78345;DHT22;67620;51.134;6.548;2024-03-23T14:20:56;8.60;69.40
78345;DHT22;67620;51.134;6.548;2024-03-23T14:23:24;8.50;69.20
78345;DHT22;67620;51.134;6.548;2024-03-23T14:25:52;8.40;70.30
78345;DHT22;67620;51.134;6.548;2024-03-23T14:28:17;8.60;71.90
78345;DHT22;67620;51.134;6.548;2024-03-23T14:30:42;8.60;71.40
78345;DHT22;67620;51.134;6.548;2024-03-23T14:33:08;8.50;71.00
78345;DHT22;67620;51.134;6.548;2024-03-23T14:35:34;8.50;72.20
78345;DHT22;67620;51.134;6.548;2024-03-23T14:37:59;8.40;71.80
78345;DHT22;67620;51.134;6.548;2024-03-23T14:40:25;8.40;71.60
78345;DHT22;67620;51.134;6.548;2024-03-23T14:42:54;8.10;70.80
78345;DHT22;67620;51.134;6.548;2024-03-23T14:45:20;7.90;70.80
78345;DHT22;67620;51.134;6.548;2024-03-23T14:47:46;8.00;71.50
78345;DHT22;67620;51.134;6.548;2024-03-23T14:50:11;8.00;72.10
78345;DHT22;67620;51.134;6.548;2024-03-23T14:52:41;8.20;72.50
78345;DHT22;67620;51.134;6.548;2024-03-23T14:55:07;8.30;72.90
78345;DHT22;67620;51.134;6.548;2024-03-23T14:57:34;8.30;71.00
78345;DHT22;67620;51.134;6.548;2024-03-23T15:00:00;8.30;69.80
78345;DHT22;67620;51.134;6.548;2024-03-23T15:02:25;8.20;69.30
78345;DHT22;67620;51.134;6.548;2024-03-23T15:04:52;8.30;70.40
78345;DHT22;67620;51.134;6.548;2024-03-23T15:07:19;8.30;71.30
78345;DHT22;67620;51.134;6.548;2024-03-23T15:09:44;8.30;70.70
78345;DHT22;67620;51.134;6.548;2024-03-23T15:12:10;8.40;71.70
78345;DHT22;67620;51.134;6.548;2024-03-23T15:14:36;8.50;68.70
78345;DHT22;67620;51.134;6.548;2024-03-23T15:17:01;8.60;69.20
78345;DHT22;67620;51.134;6.548;2024-03-23T15:19:30;8.60;68.50
78345;DHT22;67620;51.134;6.548;2024-03-23T15:21:55;8.60;68.10
78345;DHT22;67620;51.134;6.548;2024-03-23T15:24:21;8.50;68.50
78345;DHT22;67620;51.134;6.548;2024-03-23T15:26:47;8.40;65.30
78345;DHT22;67620;51.134;6.548;2024-03-23T15:29:15;8.30;64.30
78345;DHT22;67620;51.134;6.548;2024-03-23T15:31:42;8.30;65.90
78345;DHT22;67620;51.134;6.548;2024-03-23T15:34:08;8.30;65.70
78345;DHT22;67620;51.134;6.548;2024-03-23T15:36:36;8.40;66.40
78345;DHT22;67620;51.134;6.548;2024-03-23T15:39:04;8.30;65.60
78345;DHT22;67620;51.134;6.548;2024-03-23T15:41:29;8.20;65.50
78345;DHT22;67620;51.134;6.548;2024-03-23T15:43:55;7.90;66.00
78345;DHT22;67620;51.134;6.548;2024-03-23T15:46:21;8.00;68.20
78345;DHT22;67620;51.134;6.548;2024-03-23T15:48:46;8.00;66.50
78345;DHT22;67620;51.134;6.548;2024-03-23T15:51:12;8.00;66.80
78345;DHT22;67620;51.134;6.548;2024-03-23T15:53:38;8.00;66.60
78345;DHT22;67620;51.134;6.548;2024-03-23T15:56:03;7.90;67.00
78345;DHT22;67620;51.134;6.548;2024-03-23T15:58:30;7.80;67.40
78345;DHT22;67620;51.134;6.548;2024-03-23T16:00:56;7.80;67.10
78345;DHT22;67620;51.134;6.548;2024-03-23T16:03:22;7.70;67.30
78345;DHT22;67620;51.134;6.548;2024-03-23T16:05:53;7.80;68.40
78345;DHT22;67620;51.134;6.548;2024-03-23T16:08:19;8.00;68.70
78345;DHT22;67620;51.134;6.548;2024-03-23T16:10:45;8.10;68.20
78345;DHT22;67620;51.134;6.548;2024-03-23T16:13:10;8.20;67.10
78345;DHT22;67620;51.134;6.548;2024-03-23T16:15:36;8.30;67.50
78345;DHT22;67620;51.134;6.548;2024-03-23T16:18:01;8.30;68.20
78345;DHT22;67620;51.134;6.548;2024-03-23T16:20:27;8.40;70.60
78345;DHT22;67620;51.134;6.548;2024-03-23T16:22:52;8.20;70.00
78345;DHT22;67620;51.134;6.548;2024-03-23T16:25:18;7.90;69.40
78345;DHT22;67620;51.134;6.548;2024-03-23T16:27:44;7.90;69.50
78345;DHT22;67620;51.134;6.548;2024-03-23T16:30:09;7.80;68.70
78345;DHT22;67620;51.134;6.548;2024-03-23T16:32:35;7.60;68.50
78345;DHT22;67620;51.134;6.548;2024-03-23T16:35:03;7.50;68.00